createdAt,value
2019-01-10T00:07:48.998Z,99010.94
2019-01-10T00:12:53.285Z,99022.41
2019-01-10T00:28:43.172Z,99047.62
2019-01-10T00:33:48.146Z,99047.84
2019-01-10T00:39:11.709Z,99044.43
2019-01-10T00:54:41.316Z,99030.03
2019-01-10T01:00:25.035Z,99028.33
2019-01-10T01:05:48.664Z,99030.91
2019-01-10T01:11:12.375Z,99036.16
2019-01-10T01:26:36.592Z,99045.79
2019-01-10T01:31:40.813Z,99041.92
2019-01-10T01:36:45.035Z,99053.59
2019-01-10T01:47:18.402Z,99086.89
2019-01-10T01:52:23.043Z,99110.08
2019-01-10T02:02:56.507Z,99104.98
2019-01-10T02:13:16.673Z,99104.88
2019-01-10T02:18:16.969Z,99110.20
2019-01-10T02:23:40.257Z,99114.93
2019-01-10T02:29:03.556Z,99120.69
2019-01-10T02:34:07.784Z,99119.05
2019-01-10T02:39:51.427Z,99123.02
2019-01-10T02:50:45.079Z,99137.56
2019-01-10T03:00:59.221Z,99155.19
2019-01-10T03:06:03.451Z,99162.26
2019-01-10T03:11:07.684Z,99161.67
2019-01-10T03:16:30.993Z,99171.65
2019-01-10T03:21:35.353Z,99170.37
2019-01-10T03:31:49.842Z,99169.02
2019-01-10T03:36:54.113Z,99169.64
2019-01-10T03:42:17.417Z,99172.15
2019-01-10T03:47:21.650Z,99161.48
2019-01-10T03:52:44.944Z,99167.12
2019-01-10T03:57:49.180Z,99164.50
2019-01-10T04:02:53.413Z,99160.23
2019-01-10T04:13:07.998Z,99152.02
2019-01-10T04:18:12.221Z,99155.77
2019-01-10T04:23:16.555Z,99156.03
2019-01-10T04:28:20.799Z,99146.02
2019-01-10T04:33:44.106Z,99154.06
2019-01-10T04:38:48.336Z,99151.21
2019-01-10T04:43:52.580Z,99154.99
2019-01-10T04:48:56.821Z,99149.34
2019-01-10T04:54:01.067Z,99159.37
2019-01-10T05:04:15.347Z,99147.72
2019-01-10T05:09:19.979Z,99155.48
2019-01-10T05:14:24.204Z,99167.40
2019-01-10T05:19:28.724Z,99161.55
2019-01-10T05:24:45.292Z,99162.56
2019-01-10T05:29:49.884Z,99166.72
2019-01-10T05:34:54.423Z,99172.07
2019-01-10T05:40:18.015Z,99184.81
2019-01-10T05:55:41.703Z,99194.69
2019-01-10T06:01:04.957Z,99201.75
2019-01-10T06:06:09.204Z,99202.69
2019-01-10T06:16:23.032Z,99203.56
2019-01-10T06:21:46.351Z,99203.89
2019-01-10T06:32:19.057Z,99209.24
2019-01-10T06:37:23.320Z,99218.92
2019-01-10T06:42:27.578Z,99212.00
2019-01-10T06:47:31.833Z,99220.30
2019-01-10T06:52:36.076Z,99223.77
2019-01-10T07:03:29.012Z,99243.43
2019-01-10T07:08:33.239Z,99247.84
2019-01-10T07:13:56.539Z,99251.91
2019-01-10T07:19:00.790Z,99250.19
2019-01-10T07:24:05.026Z,99260.67
2019-01-10T07:29:50.074Z,99265.02
2019-01-10T07:35:13.894Z,99270.16
2019-01-10T07:40:57.817Z,99285.78
2019-01-10T07:46:45.728Z,99295.16
2019-01-10T07:51:49.977Z,99302.08
2019-01-10T07:57:13.588Z,99303.23
2019-01-10T08:02:37.131Z,99312.94
2019-01-10T08:07:41.378Z,99310.62
2019-01-10T08:12:45.619Z,99318.48
2019-01-10T08:18:29.556Z,99331.20
2019-01-10T08:29:02.935Z,99344.11
2019-01-10T08:39:36.459Z,99351.67
2019-01-10T08:44:59.806Z,99356.52
2019-01-10T09:00:44.501Z,99356.47
2019-01-10T09:06:08.363Z,99360.61
2019-01-10T09:16:24.139Z,99368.33
2019-01-10T09:31:47.872Z,99370.29
2019-01-10T09:37:11.272Z,99373.91
2019-01-10T09:42:34.565Z,99376.49
2019-01-10T09:47:38.801Z,99383.31
2019-01-10T09:52:43.102Z,99382.04
2019-01-10T09:57:47.398Z,99388.02
2019-01-10T10:02:51.635Z,99399.91
2019-01-10T10:08:14.963Z,99405.23
2019-01-10T10:18:29.148Z,99411.59
2019-01-10T10:23:33.390Z,99412.45
2019-01-10T10:28:38.052Z,99425.27
2019-01-10T10:33:42.277Z,99418.19
2019-01-10T10:38:58.527Z,99421.27
2019-01-10T10:44:02.765Z,99415.86
2019-01-10T10:49:46.618Z,99412.42
2019-01-10T10:55:10.121Z,99420.70
2019-01-10T11:00:55.531Z,99422.49
2019-01-10T11:16:19.923Z,99400.53
2019-01-10T11:21:43.471Z,99404.62
2019-01-10T11:27:06.767Z,99399.59
2019-01-10T11:32:13.408Z,99394.04
2019-01-10T11:42:26.342Z,99384.63
2019-01-10T11:47:30.613Z,99385.75
2019-01-10T11:52:35.246Z,99387.02
2019-01-10T11:58:18.869Z,99391.77
2019-01-10T12:03:23.143Z,99388.91
2019-01-10T12:13:56.408Z,99376.75
2019-01-10T12:29:39.844Z,99374.13
2019-01-10T12:45:22.231Z,99375.35
2019-01-10T12:50:45.537Z,99371.06
2019-01-10T12:55:49.773Z,99368.31
2019-01-10T13:00:53.996Z,99367.92
2019-01-10T13:05:58.237Z,99376.96
2019-01-10T13:11:02.564Z,99377.76
2019-01-10T13:16:06.876Z,99378.28
2019-01-10T13:32:09.002Z,99374.02
2019-01-10T13:47:53.677Z,99383.37
2019-01-10T13:52:57.995Z,99386.30
2019-01-10T13:58:21.500Z,99383.61
2019-01-10T14:03:25.778Z,99385.13
2019-01-10T14:08:49.091Z,99388.12
2019-01-10T14:13:53.310Z,99385.07
2019-01-10T14:19:16.630Z,99396.17
2019-01-10T14:24:39.901Z,99391.50
2019-01-10T14:35:13.543Z,99392.63
2019-01-10T14:40:36.852Z,99402.72
2019-01-10T14:46:20.893Z,99402.55
2019-01-10T14:56:58.061Z,99402.48
2019-01-10T15:17:50.668Z,99414.66
2019-01-10T15:28:42.873Z,99421.55
2019-01-10T15:33:47.110Z,99417.60
2019-01-10T15:38:51.379Z,99419.72
2019-01-10T15:55:12.505Z,99437.57
2019-01-10T16:21:14.587Z,99459.05
2019-01-10T16:26:18.925Z,99448.98
2019-01-10T16:31:23.155Z,99449.70
2019-01-10T16:36:27.391Z,99455.54
2019-01-10T16:41:50.600Z,99455.41
2019-01-10T16:46:54.839Z,99460.06
2019-01-10T16:51:59.068Z,99457.41
2019-01-10T16:57:15.466Z,99457.60
2019-01-10T17:02:19.693Z,99455.99
2019-01-10T17:12:33.781Z,99456.63
2019-01-10T17:23:06.942Z,99459.50
2019-01-10T17:49:29.355Z,99462.13
2019-01-10T17:54:33.735Z,99474.03
2019-01-10T17:59:38.229Z,99481.73
2019-01-10T18:04:42.830Z,99471.11
2019-01-10T18:09:47.061Z,99467.87
2019-01-10T18:20:01.404Z,99478.88
2019-01-10T18:25:45.177Z,99476.16
2019-01-10T18:30:49.483Z,99482.37
2019-01-10T18:36:12.890Z,99489.27
2019-01-10T18:52:35.175Z,99488.27
2019-01-10T18:57:58.499Z,99482.93
2019-01-10T19:03:42.188Z,99474.75
2019-01-10T19:20:06.013Z,99485.18
2019-01-10T19:30:58.983Z,99487.95
2019-01-10T19:36:03.220Z,99477.09
2019-01-10T19:46:17.186Z,99475.87
2019-01-10T19:51:40.490Z,99478.94
2019-01-10T19:56:44.722Z,99490.33
2019-01-10T20:12:46.247Z,99517.12
2019-01-10T20:23:43.636Z,99523.21
2019-01-10T20:34:16.918Z,99515.44
2019-01-10T20:39:21.159Z,99529.86
2019-01-10T20:44:25.470Z,99531.85
2019-01-10T20:54:39.368Z,99526.64
2019-01-10T21:10:55.621Z,99513.00
2019-01-10T21:26:39.666Z,99526.92
2019-01-10T21:32:03.007Z,99525.70
2019-01-10T21:43:16.424Z,99521.39
2019-01-10T21:48:39.748Z,99517.43
2019-01-10T21:54:03.320Z,99516.73
2019-01-10T21:59:08.981Z,99512.19
2019-01-10T22:04:32.282Z,99513.37
2019-01-10T22:09:36.551Z,99503.32
2019-01-10T22:14:52.591Z,99508.63
2019-01-10T22:20:08.360Z,99509.94
2019-01-10T22:30:42.802Z,99504.50
2019-01-10T22:35:47.113Z,99510.47
2019-01-10T22:46:21.598Z,99499.75
2019-01-10T22:51:25.887Z,99500.56
2019-01-10T23:02:43.933Z,99495.91
2019-01-10T23:07:48.554Z,99491.02
2019-01-10T23:13:12.018Z,99489.50
2019-01-10T23:18:27.797Z,99489.47
2019-01-10T23:29:01.361Z,99486.04
2019-01-10T23:34:24.747Z,99487.66
2019-01-10T23:39:29.014Z,99482.83
2019-01-10T23:44:33.423Z,99468.81
2019-01-10T23:49:57.123Z,99477.40
2019-01-10T23:55:40.809Z,99476.91
